createdAt,value
2017-11-13T00:00:04.184Z,90.00
2017-11-13T00:02:31.648Z,89.44
2017-11-13T00:04:59.159Z,88.04
2017-11-13T00:07:26.664Z,88.06
2017-11-13T00:09:54.119Z,87.70
2017-11-13T00:12:21.682Z,87.53
2017-11-13T00:14:49.139Z,87.61
2017-11-13T00:17:16.625Z,87.44
2017-11-13T00:19:44.095Z,87.01
2017-11-13T00:22:11.570Z,86.86
2017-11-13T00:24:39.030Z,86.58
2017-11-13T00:27:06.511Z,85.93
2017-11-13T00:29:33.969Z,86.46
2017-11-13T00:32:01.442Z,86.62
2017-11-13T00:34:28.928Z,86.52
2017-11-13T00:36:56.405Z,87.09
2017-11-13T00:39:23.870Z,86.35
2017-11-13T00:41:51.374Z,87.26
2017-11-13T00:44:18.838Z,86.76
2017-11-13T00:46:46.315Z,87.78
2017-11-13T00:49:13.788Z,87.49
2017-11-13T00:51:41.262Z,87.18
2017-11-13T00:54:08.750Z,87.81
2017-11-13T00:56:36.218Z,88.36
2017-11-13T00:59:03.770Z,88.47
2017-11-13T01:01:31.235Z,88.34
2017-11-13T01:03:58.720Z,87.83
2017-11-13T01:06:26.164Z,87.68
2017-11-13T01:08:53.654Z,88.15
2017-11-13T01:11:21.102Z,88.14
2017-11-13T01:13:48.556Z,87.65
2017-11-13T01:16:15.997Z,87.90
2017-11-13T01:18:43.450Z,88.79
2017-11-13T01:21:10.899Z,89.38
2017-11-13T01:23:38.412Z,88.80
2017-11-13T01:26:05.868Z,88.58
2017-11-13T01:28:33.337Z,88.30
2017-11-13T01:31:00.780Z,86.79
2017-11-13T01:33:28.262Z,86.00
2017-11-13T01:35:55.718Z,87.54
2017-11-13T01:38:23.157Z,87.46
2017-11-13T01:40:50.644Z,88.73
2017-11-13T01:43:18.076Z,87.13
2017-11-13T01:45:45.545Z,88.75
2017-11-13T01:48:13.016Z,89.79
2017-11-13T01:50:40.492Z,88.64
2017-11-13T01:53:07.930Z,88.35
2017-11-13T01:55:35.401Z,89.17
2017-11-13T01:58:02.858Z,89.05
2017-11-13T02:00:30.312Z,88.62
2017-11-13T02:02:57.765Z,88.67
2017-11-13T02:05:25.252Z,88.78
2017-11-13T02:07:52.686Z,87.98
2017-11-13T02:10:20.139Z,89.78
2017-11-13T02:12:47.619Z,88.29
2017-11-13T02:15:15.064Z,89.33
2017-11-13T02:17:42.526Z,88.59
2017-11-13T02:20:09.955Z,88.21
2017-11-13T02:22:37.410Z,88.01
2017-11-13T02:25:04.865Z,87.30
2017-11-13T02:27:32.323Z,87.77
2017-11-13T02:29:59.768Z,87.56
2017-11-13T02:32:27.222Z,88.54
2017-11-13T02:34:54.765Z,89.95
2017-11-13T02:37:22.323Z,90.04
2017-11-13T02:39:49.760Z,89.29
2017-11-13T02:42:17.332Z,88.59
2017-11-13T02:44:44.776Z,88.06
2017-11-13T02:47:12.241Z,87.46
2017-11-13T02:49:39.671Z,88.29
2017-11-13T02:52:07.157Z,87.86
2017-11-13T02:54:34.631Z,88.52
2017-11-13T02:57:02.058Z,88.31
2017-11-13T02:59:29.524Z,88.96
2017-11-13T03:01:56.965Z,88.68
2017-11-13T03:04:24.451Z,87.71
2017-11-13T03:06:51.898Z,86.39
2017-11-13T03:09:19.382Z,86.15
2017-11-13T03:11:46.822Z,85.42
2017-11-13T03:14:14.279Z,85.70
2017-11-13T03:16:41.707Z,85.07
2017-11-13T03:19:09.160Z,85.48
2017-11-13T03:21:36.591Z,84.86
2017-11-13T03:24:04.053Z,86.06
2017-11-13T03:26:31.488Z,85.83
2017-11-13T03:28:59.005Z,86.83
2017-11-13T03:31:26.448Z,85.67
2017-11-13T03:33:53.904Z,86.65
2017-11-13T03:36:21.330Z,88.18
2017-11-13T03:38:48.816Z,89.04
2017-11-13T03:41:16.247Z,89.67
2017-11-13T03:43:43.709Z,89.72
2017-11-13T03:46:11.167Z,89.16
2017-11-13T03:48:38.608Z,89.00
2017-11-13T03:51:06.077Z,89.05
2017-11-13T03:53:33.532Z,89.61
2017-11-13T03:56:01.014Z,89.63
2017-11-13T03:58:28.445Z,88.67
2017-11-13T04:00:55.912Z,88.71
2017-11-13T04:03:23.347Z,88.72
2017-11-13T04:05:50.934Z,87.98
2017-11-13T04:08:18.368Z,87.44
2017-11-13T04:10:45.869Z,87.45
2017-11-13T04:13:13.343Z,88.06
2017-11-13T04:15:40.815Z,88.58
2017-11-13T04:18:08.264Z,88.59
2017-11-13T04:20:35.767Z,87.19
2017-11-13T04:23:03.222Z,87.68
2017-11-13T04:25:30.709Z,86.19
2017-11-13T04:27:58.181Z,85.95
2017-11-13T04:30:25.636Z,87.41
2017-11-13T04:32:53.116Z,86.86
2017-11-13T04:35:20.559Z,86.47
2017-11-13T04:37:48.080Z,86.45
2017-11-13T04:40:15.530Z,85.36
2017-11-13T04:42:42.992Z,85.74
2017-11-13T04:45:10.464Z,86.60
2017-11-13T04:47:38.109Z,86.64
2017-11-13T04:50:05.568Z,87.51
2017-11-13T04:52:33.096Z,87.91
2017-11-13T04:55:00.556Z,86.36
2017-11-13T04:57:28.008Z,86.72
2017-11-13T04:59:55.472Z,86.97
2017-11-13T05:02:22.953Z,86.90
2017-11-13T05:04:50.444Z,86.28
2017-11-13T05:07:17.895Z,86.24
2017-11-13T05:09:45.376Z,84.88
2017-11-13T05:12:13.205Z,85.79
2017-11-13T05:14:40.668Z,86.14
2017-11-13T05:17:08.120Z,85.79
2017-11-13T05:19:35.589Z,86.88
2017-11-13T05:22:03.147Z,86.02
2017-11-13T05:24:30.646Z,84.75
2017-11-13T05:26:58.092Z,85.69
2017-11-13T05:29:25.577Z,84.27
2017-11-13T05:31:53.027Z,84.92
2017-11-13T05:34:20.475Z,83.75
2017-11-13T05:36:47.980Z,84.00
2017-11-13T05:39:15.436Z,85.54
2017-11-13T05:41:42.916Z,86.68
2017-11-13T05:44:10.429Z,86.67
2017-11-13T05:46:37.892Z,84.24
2017-11-13T05:49:05.417Z,83.67
2017-11-13T05:51:32.895Z,84.60
2017-11-13T05:54:00.376Z,83.85
2017-11-13T05:56:27.943Z,85.65
2017-11-13T05:58:55.391Z,86.04
2017-11-13T06:01:22.867Z,86.00
2017-11-13T06:03:53.484Z,84.09
2017-11-13T06:06:20.976Z,85.34
2017-11-13T06:08:48.455Z,85.41
2017-11-13T06:11:15.946Z,86.00
2017-11-13T06:13:43.510Z,85.66
2017-11-13T06:16:10.968Z,85.77
2017-11-13T06:18:38.445Z,85.96
2017-11-13T06:21:05.896Z,85.22
2017-11-13T06:23:33.386Z,84.27
2017-11-13T06:26:00.841Z,85.07
2017-11-13T06:28:28.312Z,84.76
2017-11-13T06:30:55.761Z,84.09
2017-11-13T06:33:23.292Z,84.77
2017-11-13T06:35:50.739Z,84.78
2017-11-13T06:38:18.222Z,84.10
2017-11-13T06:40:45.658Z,84.16
2017-11-13T06:43:13.149Z,83.14
2017-11-13T06:45:40.657Z,83.12
2017-11-13T06:48:08.220Z,82.74
2017-11-13T06:50:35.731Z,82.30
2017-11-13T06:53:03.185Z,83.04
2017-11-13T06:55:30.675Z,83.18
2017-11-13T06:57:58.141Z,83.18
2017-11-13T07:00:25.626Z,82.48
2017-11-13T07:02:53.071Z,82.61
2017-11-13T07:05:20.556Z,82.51
2017-11-13T07:07:48.013Z,82.48
2017-11-13T07:10:15.483Z,82.67
2017-11-13T07:12:42.939Z,83.33
2017-11-13T07:15:10.499Z,83.14
2017-11-13T07:17:37.947Z,82.96
2017-11-13T07:20:05.413Z,82.99
2017-11-13T07:22:32.877Z,82.31
2017-11-13T07:25:00.322Z,82.51
2017-11-13T07:27:27.801Z,82.33
2017-11-13T07:29:55.252Z,82.68
2017-11-13T07:32:22.719Z,82.94
2017-11-13T07:34:50.159Z,82.02
2017-11-13T07:37:17.649Z,82.09
2017-11-13T07:39:45.107Z,82.78
2017-11-13T07:42:12.583Z,82.20
2017-11-13T07:44:40.242Z,82.28
2017-11-13T07:47:07.757Z,82.93
2017-11-13T07:49:35.201Z,82.62
2017-11-13T07:52:02.667Z,82.72
2017-11-13T07:54:30.127Z,82.15
2017-11-13T07:56:57.627Z,82.63
2017-11-13T07:59:25.080Z,82.48
2017-11-13T08:01:52.558Z,83.50
2017-11-13T08:04:20.016Z,82.96
2017-11-13T08:06:47.489Z,83.14
2017-11-13T08:09:14.945Z,82.80
2017-11-13T08:11:42.567Z,83.16
2017-11-13T08:14:10.120Z,83.58
2017-11-13T08:16:37.557Z,84.21
2017-11-13T08:19:05.035Z,83.45
2017-11-13T08:21:32.490Z,83.33
2017-11-13T08:23:59.966Z,83.51
2017-11-13T08:26:27.422Z,83.47
2017-11-13T08:28:54.901Z,82.95
2017-11-13T08:31:22.343Z,82.81
2017-11-13T08:33:49.812Z,82.54
2017-11-13T08:36:17.261Z,82.77
2017-11-13T08:38:44.770Z,82.28
2017-11-13T08:41:12.207Z,83.27
2017-11-13T08:43:39.673Z,82.11
2017-11-13T08:46:07.142Z,82.24
2017-11-13T08:48:34.579Z,82.73
2017-11-13T08:51:02.168Z,82.72
2017-11-13T08:53:29.620Z,82.54
2017-11-13T08:55:57.089Z,82.32
2017-11-13T08:58:24.534Z,82.80
2017-11-13T09:00:52.011Z,82.33
2017-11-13T09:03:19.450Z,81.77
2017-11-13T09:05:47.017Z,81.47
2017-11-13T09:08:14.454Z,80.90
2017-11-13T09:10:41.916Z,80.80
2017-11-13T09:13:09.373Z,81.35
2017-11-13T09:15:36.872Z,79.92
2017-11-13T09:18:04.386Z,80.28
2017-11-13T09:20:31.946Z,79.48
2017-11-13T09:22:59.427Z,79.80
2017-11-13T09:25:26.866Z,80.50
2017-11-13T09:27:54.332Z,80.16
2017-11-13T09:30:21.872Z,80.02
2017-11-13T09:32:49.332Z,80.66
2017-11-13T09:35:16.778Z,81.32
2017-11-13T09:37:44.243Z,81.01
2017-11-13T09:40:11.707Z,79.01
2017-11-13T09:42:39.263Z,79.66
2017-11-13T09:45:06.709Z,81.41
2017-11-13T09:47:34.215Z,81.75
2017-11-13T09:50:01.662Z,81.57
2017-11-13T09:52:29.123Z,80.93
2017-11-13T09:54:56.600Z,82.54
2017-11-13T09:57:24.082Z,81.75
2017-11-13T09:59:51.549Z,82.86
2017-11-13T10:02:18.983Z,81.88
2017-11-13T10:04:46.449Z,81.34
2017-11-13T10:07:13.905Z,80.36
2017-11-13T10:09:41.380Z,79.92
2017-11-13T10:12:08.847Z,79.65
2017-11-13T10:14:36.317Z,79.94
2017-11-13T10:17:03.787Z,80.93
2017-11-13T10:19:31.251Z,80.11
2017-11-13T10:21:58.758Z,79.84
2017-11-13T10:24:26.241Z,80.38
2017-11-13T10:26:53.683Z,79.82
2017-11-13T10:29:21.126Z,81.08
2017-11-13T10:31:48.599Z,80.98
2017-11-13T10:34:16.056Z,81.04
2017-11-13T10:36:43.525Z,81.11
2017-11-13T10:39:10.974Z,79.39
2017-11-13T10:41:38.436Z,80.65
2017-11-13T10:44:05.879Z,80.36
2017-11-13T10:46:33.462Z,78.68
2017-11-13T10:49:00.916Z,78.67
2017-11-13T10:51:28.419Z,76.89
2017-11-13T10:53:55.856Z,77.79
2017-11-13T10:56:23.312Z,77.34
2017-11-13T10:58:50.786Z,76.55
2017-11-13T11:01:18.223Z,76.50
2017-11-13T11:03:45.701Z,76.27
2017-11-13T11:06:13.146Z,75.34
2017-11-13T11:08:40.598Z,75.50
2017-11-13T11:11:08.058Z,76.64
2017-11-13T11:13:38.063Z,75.95
2017-11-13T11:16:11.120Z,75.14
2017-11-13T11:21:45.872Z,76.95
2017-11-13T11:24:13.335Z,76.64
2017-11-13T11:26:46.256Z,76.50
2017-11-13T11:29:16.164Z,75.61
2017-11-13T11:31:49.311Z,76.09
2017-11-13T11:34:22.493Z,76.48
2017-11-13T11:36:52.392Z,77.89
2017-11-13T11:39:19.854Z,76.36
2017-11-13T11:41:47.297Z,76.80
2017-11-13T11:44:29.655Z,77.09
2017-11-13T11:46:57.091Z,76.68
2017-11-13T11:49:34.471Z,77.30
2017-11-13T11:52:01.911Z,76.59
2017-11-13T11:54:29.377Z,75.32
2017-11-13T11:57:02.311Z,74.65
2017-11-13T11:59:29.776Z,75.48
2017-11-13T12:01:57.223Z,76.35
2017-11-13T12:04:24.731Z,76.29
2017-11-13T12:06:52.188Z,75.67
2017-11-13T12:09:19.649Z,75.98
2017-11-13T12:11:47.086Z,75.96
2017-11-13T12:14:14.659Z,74.83
2017-11-13T12:16:42.099Z,75.66
2017-11-13T12:19:09.640Z,76.23
2017-11-13T12:21:37.093Z,75.54
2017-11-13T12:24:04.547Z,75.76
2017-11-13T12:26:32.022Z,75.81
2017-11-13T12:28:59.497Z,76.65
2017-11-13T12:31:27.837Z,76.52
2017-11-13T12:33:55.314Z,75.10
2017-11-13T12:36:22.792Z,77.34
2017-11-13T12:38:50.235Z,75.16
2017-11-13T12:41:17.801Z,75.01
2017-11-13T12:43:45.256Z,76.15
2017-11-13T12:46:12.717Z,76.23
2017-11-13T12:48:40.170Z,76.35
2017-11-13T12:51:07.646Z,77.53
2017-11-13T12:53:35.103Z,78.57
2017-11-13T12:56:02.641Z,78.37
2017-11-13T12:58:30.200Z,77.07
2017-11-13T13:00:57.653Z,75.54
2017-11-13T13:03:25.130Z,75.12
2017-11-13T13:05:52.595Z,73.81
2017-11-13T13:08:20.083Z,74.00
2017-11-13T13:10:47.549Z,74.15
2017-11-13T13:13:15.059Z,74.55
2017-11-13T13:15:42.539Z,73.78
2017-11-13T13:18:10.052Z,73.43
2017-11-13T13:20:37.514Z,74.16
2017-11-13T13:23:05.002Z,73.86
2017-11-13T13:25:32.442Z,74.59
2017-11-13T13:27:59.884Z,74.62
2017-11-13T13:30:27.357Z,75.26
2017-11-13T13:32:54.789Z,74.64
2017-11-13T13:35:22.253Z,73.34
2017-11-13T13:37:49.695Z,74.64
2017-11-13T13:40:17.170Z,73.93
2017-11-13T13:42:44.724Z,74.92
2017-11-13T13:45:12.276Z,74.38
2017-11-13T13:47:39.727Z,74.53
2017-11-13T13:50:07.276Z,73.94
2017-11-13T13:52:34.790Z,74.30
2017-11-13T13:55:02.338Z,74.63
2017-11-13T13:57:29.800Z,75.47
2017-11-13T13:59:57.310Z,75.00
2017-11-13T14:02:24.790Z,74.68
2017-11-13T14:04:52.342Z,73.78
2017-11-13T14:07:19.810Z,74.40
2017-11-13T14:09:47.304Z,74.43
2017-11-13T14:12:14.781Z,75.48
2017-11-13T14:14:42.221Z,73.91
2017-11-13T14:17:09.715Z,73.23
2017-11-13T14:19:37.158Z,73.35
2017-11-13T14:22:04.612Z,73.90
2017-11-13T14:24:32.063Z,73.88
2017-11-13T14:26:59.542Z,73.38
2017-11-13T14:29:26.996Z,74.19
2017-11-13T14:31:54.477Z,75.07
2017-11-13T14:34:21.936Z,74.29
2017-11-13T14:36:49.437Z,72.29
2017-11-13T14:39:16.931Z,72.60
2017-11-13T14:41:44.382Z,73.00
2017-11-13T14:44:11.955Z,72.95
2017-11-13T14:46:39.417Z,71.62
2017-11-13T14:49:06.891Z,72.33
2017-11-13T14:51:34.346Z,73.51
2017-11-13T14:54:01.866Z,74.74
2017-11-13T14:56:29.310Z,74.88
2017-11-13T14:58:56.804Z,75.04
2017-11-13T15:01:24.246Z,75.61
2017-11-13T15:03:51.698Z,75.46
2017-11-13T15:06:19.144Z,74.94
2017-11-13T15:08:46.626Z,74.54
2017-11-13T15:11:14.091Z,74.92
2017-11-13T15:13:41.539Z,74.78
2017-11-13T15:16:09.020Z,74.60
2017-11-13T15:18:36.467Z,75.40
2017-11-13T15:21:04.016Z,77.04
2017-11-13T15:23:31.475Z,77.33
2017-11-13T15:25:58.980Z,77.44
2017-11-13T15:28:26.545Z,77.66
2017-11-13T15:30:54.044Z,78.69
2017-11-13T15:33:21.490Z,77.49
2017-11-13T15:35:48.959Z,79.72
2017-11-13T15:38:16.438Z,77.21
2017-11-13T15:40:43.912Z,76.24
2017-11-13T15:43:11.356Z,76.34
2017-11-13T15:45:38.875Z,74.41
2017-11-13T15:48:06.469Z,74.37
2017-11-13T15:50:33.937Z,75.48
2017-11-13T15:53:01.476Z,74.31
2017-11-13T15:55:28.971Z,74.94
2017-11-13T15:57:56.414Z,76.32
2017-11-13T16:00:23.863Z,77.72
2017-11-13T16:02:51.953Z,79.66
2017-11-13T16:05:19.438Z,80.15
2017-11-13T16:07:47.020Z,81.19
2017-11-13T16:10:14.578Z,82.13
2017-11-13T16:12:42.045Z,82.24
2017-11-13T16:15:09.482Z,82.43
2017-11-13T16:17:36.969Z,81.19
2017-11-13T16:20:04.414Z,79.87
2017-11-13T16:22:31.960Z,79.22
2017-11-13T16:24:59.416Z,78.25
2017-11-13T16:27:26.880Z,79.32
2017-11-13T16:29:54.572Z,80.22
2017-11-13T16:32:22.042Z,80.54
2017-11-13T16:34:49.478Z,81.66
2017-11-13T16:37:16.953Z,82.35
2017-11-13T16:39:44.433Z,83.17
2017-11-13T16:42:12.008Z,82.93
2017-11-13T16:44:39.451Z,82.66
2017-11-13T16:47:06.911Z,83.48
2017-11-13T16:49:34.479Z,83.24
2017-11-13T16:52:01.932Z,83.60
2017-11-13T16:54:29.395Z,84.47
2017-11-13T16:56:56.840Z,84.80
2017-11-13T16:59:24.425Z,85.31
2017-11-13T17:01:51.974Z,85.68
2017-11-13T17:04:19.541Z,85.89
2017-11-13T17:06:47.016Z,85.48
2017-11-13T17:09:14.480Z,85.47
2017-11-13T17:11:42.005Z,86.01
2017-11-13T17:14:09.472Z,86.52
2017-11-13T17:16:36.993Z,86.10
2017-11-13T17:21:45.407Z,86.39
2017-11-13T17:24:12.855Z,86.66
2017-11-13T17:26:40.324Z,86.42
2017-11-13T17:29:07.769Z,86.31
2017-11-13T17:31:35.223Z,86.83
2017-11-13T17:34:02.671Z,86.56
2017-11-13T17:36:30.161Z,85.85
2017-11-13T17:38:57.648Z,86.62
2017-11-13T17:41:25.200Z,85.67
2017-11-13T17:43:52.651Z,85.94
2017-11-13T17:46:20.117Z,86.16
2017-11-13T17:48:47.564Z,86.02
2017-11-13T17:51:15.030Z,86.24
2017-11-13T17:53:42.471Z,86.29
2017-11-13T17:56:09.945Z,86.68
2017-11-13T17:58:37.385Z,86.81
2017-11-13T18:01:04.842Z,86.59
2017-11-13T18:03:32.304Z,86.43
2017-11-13T18:05:59.774Z,86.67
2017-11-13T18:08:27.248Z,86.23
2017-11-13T18:10:54.952Z,86.79
2017-11-13T18:13:22.429Z,87.27
2017-11-13T18:15:49.906Z,86.45
2017-11-13T18:18:17.377Z,86.59
2017-11-13T18:20:44.892Z,86.50
2017-11-13T18:23:12.342Z,86.73
2017-11-13T18:25:39.795Z,85.66
2017-11-13T18:28:07.265Z,86.48
2017-11-13T18:30:34.708Z,86.57
2017-11-13T18:33:02.306Z,86.68
2017-11-13T18:35:29.743Z,86.55
2017-11-13T18:37:57.201Z,87.07
2017-11-13T18:40:24.671Z,86.51
2017-11-13T18:42:52.139Z,86.63
2017-11-13T18:45:19.598Z,87.30
2017-11-13T18:47:47.147Z,86.66
2017-11-13T18:50:14.633Z,86.98
2017-11-13T18:52:42.088Z,87.19
2017-11-13T18:55:09.563Z,87.23
2017-11-13T19:00:10.860Z,87.00
2017-11-13T19:02:38.324Z,86.58
2017-11-13T19:05:05.919Z,86.76
2017-11-13T19:07:33.351Z,86.60
2017-11-13T19:10:00.899Z,86.69
2017-11-13T19:12:28.368Z,87.27
2017-11-13T19:14:55.828Z,87.11
2017-11-13T19:17:23.291Z,87.36
2017-11-13T19:19:50.731Z,87.16
2017-11-13T19:22:18.227Z,87.45
2017-11-13T19:24:45.701Z,86.94
2017-11-13T19:27:13.152Z,87.29
2017-11-13T19:29:40.588Z,87.05
2017-11-13T19:32:08.149Z,87.30
2017-11-13T19:34:35.605Z,87.20
2017-11-13T19:37:03.103Z,87.68
2017-11-13T19:39:30.578Z,87.39
2017-11-13T19:41:58.023Z,87.51
2017-11-13T19:44:25.463Z,87.98
2017-11-13T19:46:52.949Z,88.27
2017-11-13T19:49:20.408Z,88.30
2017-11-13T19:51:47.851Z,87.30
2017-11-13T19:54:15.306Z,87.48
2017-11-13T19:56:42.756Z,87.94
2017-11-13T19:59:10.224Z,88.31
2017-11-13T20:01:37.688Z,87.53
2017-11-13T20:04:05.172Z,90.09
2017-11-13T20:06:32.629Z,88.47
2017-11-13T20:09:00.107Z,88.34
2017-11-13T20:11:27.555Z,87.94
2017-11-13T20:13:55.066Z,89.14
2017-11-13T20:16:22.510Z,89.46
2017-11-13T20:18:49.969Z,89.06
2017-11-13T20:21:17.459Z,88.33
2017-11-13T20:23:44.939Z,87.68
2017-11-13T20:26:12.404Z,87.56
2017-11-13T20:28:39.876Z,87.91
2017-11-13T20:31:07.343Z,88.46
2017-11-13T20:33:34.798Z,87.64
2017-11-13T20:36:02.279Z,88.32
2017-11-13T20:38:29.722Z,87.64
2017-11-13T20:40:57.182Z,86.74
2017-11-13T20:43:24.624Z,87.29
2017-11-13T20:45:52.096Z,87.17
2017-11-13T20:48:19.564Z,87.47
2017-11-13T20:50:47.039Z,88.30
2017-11-13T20:53:14.487Z,88.03
2017-11-13T20:55:41.959Z,88.00
2017-11-13T20:58:09.405Z,88.53
2017-11-13T21:00:36.880Z,87.86
2017-11-13T21:03:04.338Z,88.21
2017-11-13T21:05:31.803Z,89.06
2017-11-13T21:07:59.259Z,88.45
2017-11-13T21:10:26.716Z,88.60
2017-11-13T21:12:54.167Z,88.46
2017-11-13T21:15:21.685Z,88.25
2017-11-13T21:17:49.157Z,88.61
2017-11-13T21:20:16.590Z,88.15
2017-11-13T21:22:44.163Z,87.55
2017-11-13T21:25:11.640Z,88.02
2017-11-13T21:27:39.108Z,88.05
2017-11-13T21:30:06.548Z,88.71
2017-11-13T21:32:34.015Z,88.52
2017-11-13T21:35:01.546Z,88.47
2017-11-13T21:37:29.112Z,88.36
2017-11-13T21:39:56.563Z,88.71
2017-11-13T21:42:24.048Z,89.58
2017-11-13T21:44:51.510Z,89.06
2017-11-13T21:47:18.954Z,88.30
2017-11-13T21:49:46.426Z,88.97
2017-11-13T21:52:13.883Z,88.66
2017-11-13T21:54:41.346Z,88.38
2017-11-13T21:57:08.787Z,88.63
2017-11-13T21:59:36.255Z,88.32
2017-11-13T22:02:03.704Z,88.22
2017-11-13T22:04:31.185Z,88.36
2017-11-13T22:06:58.626Z,88.73
2017-11-13T22:09:26.104Z,89.20
2017-11-13T22:11:53.551Z,88.15
2017-11-13T22:14:21.012Z,88.64
2017-11-13T22:16:48.465Z,88.26
2017-11-13T22:19:15.936Z,87.84
2017-11-13T22:21:43.385Z,88.63
2017-11-13T22:24:10.863Z,88.48
2017-11-13T22:26:38.349Z,87.77
2017-11-13T22:29:05.807Z,88.10
2017-11-13T22:31:33.300Z,88.53
2017-11-13T22:34:00.750Z,89.05
2017-11-13T22:36:28.226Z,90.74
2017-11-13T22:38:55.721Z,90.53
2017-11-13T22:41:23.193Z,89.85
2017-11-13T22:43:50.656Z,88.78
2017-11-13T22:46:18.119Z,88.31
2017-11-13T22:48:45.657Z,88.45
2017-11-13T22:51:13.137Z,89.08
2017-11-13T22:53:40.576Z,88.51
2017-11-13T22:56:08.052Z,88.55
2017-11-13T22:58:35.490Z,87.93
2017-11-13T23:01:02.976Z,88.55
2017-11-13T23:03:30.442Z,89.47
2017-11-13T23:05:57.928Z,90.42
2017-11-13T23:08:25.380Z,89.68
2017-11-13T23:10:52.848Z,89.11
2017-11-13T23:13:20.336Z,89.08
2017-11-13T23:15:47.885Z,89.03
2017-11-13T23:18:15.330Z,88.94
2017-11-13T23:20:42.808Z,88.91
2017-11-13T23:23:10.252Z,89.11
2017-11-13T23:25:37.718Z,88.58
2017-11-13T23:28:05.225Z,88.80
2017-11-13T23:30:32.678Z,89.75
2017-11-13T23:33:00.178Z,90.51
2017-11-13T23:35:27.626Z,89.21
2017-11-13T23:37:55.128Z,89.49
2017-11-13T23:40:22.584Z,89.43
2017-11-13T23:42:50.087Z,89.32
2017-11-13T23:45:17.526Z,91.08
2017-11-13T23:47:44.991Z,89.31
2017-11-13T23:50:12.432Z,90.96
2017-11-13T23:52:39.889Z,90.36
2017-11-13T23:55:07.327Z,90.74
2017-11-13T23:57:34.786Z,90.08
